sensor_id;sensor_type;location;lat;lon;timestamp;temperature;humidity
322;DHT22;148;51.480;7.208;2024-02-15T15:47:32;16.10;24.60
322;DHT22;148;51.480;7.208;2024-02-15T15:49:57;16.30;24.90
322;DHT22;148;51.480;7.208;2024-02-15T15:52:26;16.60;29.60
322;DHT22;148;51.480;7.208;2024-02-15T15:54:52;16.70;32.40
322;DHT22;148;51.480;7.208;2024-02-15T15:57:18;16.90;34.10
322;DHT22;148;51.480;7.208;2024-02-15T15:59:44;16.90;34.60
322;DHT22;148;51.480;7.208;2024-02-15T16:02:10;16.80;35.50
322;DHT22;148;51.480;7.208;2024-02-15T16:04:47;17.00;34.50
322;DHT22;148;51.480;7.208;2024-02-15T16:07:16;17.10;35.30
322;DHT22;148;51.480;7.208;2024-02-15T16:09:41;17.20;37.90
322;DHT22;148;51.480;7.208;2024-02-15T16:12:11;17.20;39.70
322;DHT22;148;51.480;7.208;2024-02-15T16:14:42;17.20;39.60
322;DHT22;148;51.480;7.208;2024-02-15T16:17:11;17.30;41.30
322;DHT22;148;51.480;7.208;2024-02-15T16:19:36;17.40;42.00
322;DHT22;148;51.480;7.208;2024-02-15T16:22:03;17.50;43.10
322;DHT22;148;51.480;7.208;2024-02-15T16:24:29;17.40;42.50
322;DHT22;148;51.480;7.208;2024-02-15T16:26:55;17.50;42.80
322;DHT22;148;51.480;7.208;2024-02-15T16:29:20;17.60;44.40
322;DHT22;148;51.480;7.208;2024-02-15T16:31:46;17.60;45.00
322;DHT22;148;51.480;7.208;2024-02-15T16:34:13;17.60;45.40
322;DHT22;148;51.480;7.208;2024-02-15T16:36:39;17.60;45.80
322;DHT22;148;51.480;7.208;2024-02-15T16:39:06;17.60;45.90
322;DHT22;148;51.480;7.208;2024-02-15T16:41:32;17.60;45.80
322;DHT22;148;51.480;7.208;2024-02-15T16:43:58;17.60;45.80
322;DHT22;148;51.480;7.208;2024-02-15T16:46:24;17.60;46.30
322;DHT22;148;51.480;7.208;2024-02-15T16:48:50;17.40;46.30
322;DHT22;148;51.480;7.208;2024-02-15T16:51:21;17.40;47.00
322;DHT22;148;51.480;7.208;2024-02-15T16:53:55;17.20;46.60
322;DHT22;148;51.480;7.208;2024-02-15T16:56:21;17.20;46.20
322;DHT22;148;51.480;7.208;2024-02-15T16:58:56;17.20;46.50
322;DHT22;148;51.480;7.208;2024-02-15T17:01:24;17.10;45.00
322;DHT22;148;51.480;7.208;2024-02-15T17:03:55;17.10;45.80
322;DHT22;148;51.480;7.208;2024-02-15T17:06:30;17.10;46.30
322;DHT22;148;51.480;7.208;2024-02-15T17:08:56;17.10;46.60
322;DHT22;148;51.480;7.208;2024-02-15T17:11:22;17.20;46.80
322;DHT22;148;51.480;7.208;2024-02-15T17:13:48;17.10;47.10
322;DHT22;148;51.480;7.208;2024-02-15T17:16:19;17.20;47.40
322;DHT22;148;51.480;7.208;2024-02-15T17:18:48;17.10;47.80
322;DHT22;148;51.480;7.208;2024-02-15T17:21:16;17.10;48.10
322;DHT22;148;51.480;7.208;2024-02-15T17:23:41;17.00;48.30
322;DHT22;148;51.480;7.208;2024-02-15T17:26:09;17.00;48.20
322;DHT22;148;51.480;7.208;2024-02-15T17:28:37;17.00;48.30
322;DHT22;148;51.480;7.208;2024-02-15T17:31:03;17.00;48.90
322;DHT22;148;51.480;7.208;2024-02-15T17:33:33;17.00;48.10
322;DHT22;148;51.480;7.208;2024-02-15T17:36:00;17.00;48.00
322;DHT22;148;51.480;7.208;2024-02-15T17:38:28;17.00;48.80
322;DHT22;148;51.480;7.208;2024-02-15T17:40:53;17.00;48.90
322;DHT22;148;51.480;7.208;2024-02-15T17:43:19;17.00;49.20
322;DHT22;148;51.480;7.208;2024-02-15T17:45:44;16.90;48.80
322;DHT22;148;51.480;7.208;2024-02-15T17:48:12;16.90;48.60
322;DHT22;148;51.480;7.208;2024-02-15T17:50:44;17.00;49.20
322;DHT22;148;51.480;7.208;2024-02-15T17:53:09;16.90;48.20
322;DHT22;148;51.480;7.208;2024-02-15T17:55:35;17.00;48.80
322;DHT22;148;51.480;7.208;2024-02-15T17:58:01;17.00;48.70
322;DHT22;148;51.480;7.208;2024-02-15T18:00:27;16.90;48.40
322;DHT22;148;51.480;7.208;2024-02-15T18:02:54;16.90;49.30
322;DHT22;148;51.480;7.208;2024-02-15T18:05:23;16.90;48.70
322;DHT22;148;51.480;7.208;2024-02-15T18:07:48;16.90;49.40
322;DHT22;148;51.480;7.208;2024-02-15T18:10:15;16.70;48.10
322;DHT22;148;51.480;7.208;2024-02-15T18:12:45;16.70;48.30
322;DHT22;148;51.480;7.208;2024-02-15T18:15:12;16.80;48.40
322;DHT22;148;51.480;7.208;2024-02-15T18:17:51;16.80;48.90
322;DHT22;148;51.480;7.208;2024-02-15T18:20:18;16.70;48.20
322;DHT22;148;51.480;7.208;2024-02-15T18:22:46;16.70;48.30
322;DHT22;148;51.480;7.208;2024-02-15T18:25:12;16.70;48.30
322;DHT22;148;51.480;7.208;2024-02-15T18:27:38;16.60;48.30
322;DHT22;148;51.480;7.208;2024-02-15T18:30:05;16.60;48.70
322;DHT22;148;51.480;7.208;2024-02-15T18:32:37;16.60;48.70
322;DHT22;148;51.480;7.208;2024-02-15T18:35:06;16.50;48.20
322;DHT22;148;51.480;7.208;2024-02-15T18:37:36;16.50;49.40
322;DHT22;148;51.480;7.208;2024-02-15T18:40:02;16.50;48.70
322;DHT22;148;51.480;7.208;2024-02-15T18:42:35;16.60;49.50
322;DHT22;148;51.480;7.208;2024-02-15T18:45:02;16.60;49.70
322;DHT22;148;51.480;7.208;2024-02-15T18:47:31;16.60;49.90
322;DHT22;148;51.480;7.208;2024-02-15T18:49:57;16.70;49.90
322;DHT22;148;51.480;7.208;2024-02-15T18:52:24;16.70;50.00
322;DHT22;148;51.480;7.208;2024-02-15T18:54:52;16.60;50.70
322;DHT22;148;51.480;7.208;2024-02-15T18:57:25;16.50;49.50
322;DHT22;148;51.480;7.208;2024-02-15T18:59:51;16.40;49.30
322;DHT22;148;51.480;7.208;2024-02-15T19:02:18;16.50;50.30
322;DHT22;148;51.480;7.208;2024-02-15T19:04:48;16.50;50.60
322;DHT22;148;51.480;7.208;2024-02-15T19:07:13;16.60;51.20
322;DHT22;148;51.480;7.208;2024-02-15T19:09:39;16.50;51.50
322;DHT22;148;51.480;7.208;2024-02-15T19:12:05;16.50;50.80
322;DHT22;148;51.480;7.208;2024-02-15T19:14:33;16.50;51.50
322;DHT22;148;51.480;7.208;2024-02-15T19:16:59;16.50;52.00
322;DHT22;148;51.480;7.208;2024-02-15T19:19:24;16.50;51.70
322;DHT22;148;51.480;7.208;2024-02-15T19:21:50;16.50;52.20
322;DHT22;148;51.480;7.208;2024-02-15T19:24:17;16.60;52.70
322;DHT22;148;51.480;7.208;2024-02-15T19:26:43;16.50;52.60
322;DHT22;148;51.480;7.208;2024-02-15T19:29:11;16.50;52.30
322;DHT22;148;51.480;7.208;2024-02-15T19:31:38;16.40;52.90
322;DHT22;148;51.480;7.208;2024-02-15T19:34:05;16.40;53.00
322;DHT22;148;51.480;7.208;2024-02-15T19:36:31;16.40;53.70
322;DHT22;148;51.480;7.208;2024-02-15T19:38:57;16.40;54.20
322;DHT22;148;51.480;7.208;2024-02-15T19:41:26;16.50;53.90
322;DHT22;148;51.480;7.208;2024-02-15T19:43:51;16.50;54.00
322;DHT22;148;51.480;7.208;2024-02-15T19:46:20;16.40;54.00
322;DHT22;148;51.480;7.208;2024-02-15T19:48:49;16.50;53.60
322;DHT22;148;51.480;7.208;2024-02-15T19:51:15;16.40;54.00
322;DHT22;148;51.480;7.208;2024-02-15T19:53:41;16.40;55.00
322;DHT22;148;51.480;7.208;2024-02-15T19:56:07;16.50;54.70
322;DHT22;148;51.480;7.208;2024-02-15T19:58:37;16.50;54.90
322;DHT22;148;51.480;7.208;2024-02-15T20:01:03;16.40;55.00
322;DHT22;148;51.480;7.208;2024-02-15T20:03:28;16.30;55.10
322;DHT22;148;51.480;7.208;2024-02-15T20:05:57;16.30;54.50
322;DHT22;148;51.480;7.208;2024-02-15T20:08:27;16.30;54.90
322;DHT22;148;51.480;7.208;2024-02-15T20:10:54;16.30;54.90
322;DHT22;148;51.480;7.208;2024-02-15T20:13:24;16.30;54.70
322;DHT22;148;51.480;7.208;2024-02-15T20:15:50;16.30;54.20
322;DHT22;148;51.480;7.208;2024-02-15T20:18:20;16.30;54.50
322;DHT22;148;51.480;7.208;2024-02-15T20:20:47;16.30;54.70
322;DHT22;148;51.480;7.208;2024-02-15T20:23:16;16.20;54.50
322;DHT22;148;51.480;7.208;2024-02-15T20:25:42;16.20;54.40
322;DHT22;148;51.480;7.208;2024-02-15T20:28:08;16.10;54.20
322;DHT22;148;51.480;7.208;2024-02-15T20:30:34;16.10;54.20
322;DHT22;148;51.480;7.208;2024-02-15T20:32:59;16.10;53.60
